Time;durP1;ratioP1;P1;durP2;ratioP2;P2;SDS_P1;SDS_P2;PMS_P1;PMS_P2;Temp;Humidity;BMP_temperature;BMP_pressure;BME280_temperature;BME280_humidity;BME280_pressure;Samples;Min_cycle;Max_cycle;Signal;HPM_P1;HPM_P2
2022/06/12 00:02:23;;;;;;;8.13;3.60;;;;;;;22.64;51.89;100097.56;4337243;32;33228;-87
2022/06/12 00:04:53;;;;;;;7.40;3.67;;;;;;;22.68;52.05;100095.06;4349219;32;35266;-83
2022/06/12 00:07:21;;;;;;;5.95;3.35;;;;;;;22.64;52.21;100093.94;4365006;32;32783;-80
2022/06/12 00:09:49;;;;;;;5.20;3.33;;;;;;;22.64;52.24;100094.78;4366119;32;32190;-83
2022/06/12 00:12:18;;;;;;;6.72;3.80;;;;;;;22.60;52.53;100092.81;4378829;32;33061;-87
2022/06/12 00:14:46;;;;;;;6.03;3.50;;;;;;;22.55;52.67;100095.59;4378645;32;33046;-87
2022/06/12 00:17:14;;;;;;;7.05;3.58;;;;;;;22.49;52.39;100091.97;4378578;32;32356;-86
2022/06/12 00:19:44;;;;;;;5.72;3.00;;;;;;;22.64;52.01;100083.59;4378535;32;31942;-87
2022/06/12 00:22:12;;;;;;;6.70;3.40;;;;;;;22.61;51.57;100084.16;4378688;32;33962;-87
2022/06/12 00:24:40;;;;;;;5.70;3.62;;;;;;;22.52;51.42;100080.22;4378675;32;32849;-87
2022/06/12 00:27:09;;;;;;;6.60;3.62;;;;;;;22.38;52.02;100073.47;4366166;32;33725;-87
2022/06/12 00:29:41;;;;;;;6.60;3.90;;;;;;;22.39;52.18;100075.16;4379040;32;33620;-87
2022/06/12 00:32:14;;;;;;;9.60;3.53;;;;;;;22.37;52.37;100069.00;4379267;32;33907;-87
2022/06/12 00:34:47;;;;;;;6.72;3.45;;;;;;;22.41;52.34;100075.72;4368134;32;34073;-86
2022/06/12 00:37:21;;;;;;;5.40;3.40;;;;;;;22.29;52.36;100070.38;4368126;32;33379;-87
2022/06/12 00:39:51;;;;;;;7.65;3.87;;;;;;;22.42;51.75;100074.59;4381091;32;33435;-90
2022/06/12 00:42:36;;;;;;;6.40;3.85;;;;;;;22.30;51.81;100072.06;4381040;32;34628;-89
2022/06/12 00:45:29;;;;;;;7.10;3.90;;;;;;;22.37;51.77;100069.00;4380650;32;33801;-87
2022/06/12 00:48:12;;;;;;;7.12;4.00;;;;;;;22.31;52.17;100072.91;4356137;32;32096;-88
2022/06/12 00:50:47;;;;;;;6.60;4.00;;;;;;;22.18;52.60;100074.28;4368491;32;34092;-87
2022/06/12 00:53:22;;;;;;;6.87;3.70;;;;;;;22.23;52.78;100065.06;4380620;32;34020;-86
2022/06/12 00:56:10;;;;;;;6.72;3.78;;;;;;;22.24;52.80;100066.75;4380324;32;34612;-88
2022/06/12 00:58:42;;;;;;;7.05;3.90;;;;;;;22.16;53.19;100075.66;4355836;32;32368;-87
2022/06/12 01:01:18;;;;;;;8.27;3.83;;;;;;;22.25;52.82;100071.22;4368197;32;32021;-87
2022/06/12 01:06:34;;;;;;;5.53;3.80;;;;;;;22.11;53.16;100070.06;4369849;32;33524;-87
2022/06/12 01:09:09;;;;;;;5.37;3.80;;;;;;;22.14;53.06;100072.31;4368287;32;33675;-87
2022/06/12 01:11:40;;;;;;;7.22;3.70;;;;;;;22.19;52.86;100055.53;4380543;32;33363;-87
2022/06/12 01:14:10;;;;;;;5.60;3.50;;;;;;;22.08;53.00;100062.25;4367950;32;32284;-88
2022/06/12 01:16:45;;;;;;;7.50;3.55;;;;;;;21.96;53.32;100066.09;4380216;32;34428;-88
2022/06/12 01:19:22;;;;;;;5.05;3.17;;;;;;;21.89;53.40;100061.88;4380917;32;34648;-87
2022/06/12 01:22:05;;;;;;;7.30;3.35;;;;;;;21.90;53.34;100067.19;4367750;32;31896;-89
2022/06/12 01:24:51;;;;;;;5.30;3.53;;;;;;;21.85;53.33;100055.16;4380495;32;34874;-88
2022/06/12 01:27:19;;;;;;;;;;;;;;;21.99;52.86;100057.16;4380420;32;33935;-88
2022/06/12 01:30:15;;;;;;;6.53;3.22;;;;;;;21.91;53.27;100056.88;4367999;32;32617;-88
2022/06/12 01:33:11;;;;;;;5.43;3.67;;;;;;;21.89;53.03;100057.13;4368026;32;33640;-87
2022/06/12 01:36:00;;;;;;;7.07;3.75;;;;;;;21.88;53.15;100058.25;4380402;32;34449;-88
2022/06/12 01:38:39;;;;;;;5.00;3.30;;;;;;;21.88;52.99;100061.03;4367717;32;32765;-88
2022/06/12 01:41:28;;;;;;;6.57;3.65;;;;;;;21.78;53.22;100060.16;4367870;32;33351;-88
2022/06/12 01:44:17;;;;;;;6.35;3.67;;;;;;;21.84;53.21;100056.28;4366740;32;32702;-89
2022/06/12 01:47:00;;;;;;;5.90;3.58;;;;;;;21.83;53.21;100055.44;4367739;32;33126;-88
2022/06/12 01:49:31;;;;;;;7.00;3.87;;;;;;;21.93;52.95;100058.28;4380415;32;34649;-88
2022/06/12 01:52:11;;;;;;;6.40;3.20;;;;;;;21.89;53.03;100059.94;4380168;32;34826;-87
2022/06/12 01:54:46;;;;;;;6.95;3.33;;;;;;;21.92;52.44;100058.53;4367929;32;34451;-88
2022/06/12 01:57:26;;;;;;;5.18;3.67;;;;;;;21.91;52.11;100052.12;4367588;32;32160;-88
2022/06/12 01:59:55;;;;;;;8.45;3.70;;;;;;;21.95;52.24;100055.19;4380182;32;35133;-89
2022/06/12 02:02:33;;;;;;;5.95;4.05;;;;;;;21.77;53.02;100053.75;4367021;32;33206;-87
2022/06/12 02:05:15;;;;;;;6.18;3.75;;;;;;;21.95;52.66;100055.19;4379468;32;33491;-88
2022/06/12 02:07:53;;;;;;;5.32;3.42;;;;;;;21.93;52.08;100049.03;4367941;32;33606;-88
2022/06/12 02:10:29;;;;;;;5.97;3.37;;;;;;;21.86;52.17;100054.91;4366467;32;33760;-88
2022/06/12 02:13:13;;;;;;;;;;;;;;;21.75;52.38;100050.37;4365292;32;33550;-88
2022/06/12 02:16:05;;;;;;;6.35;3.47;;;;;;;21.95;51.88;100046.81;4354328;32;33441;-88
2022/06/12 02:18:50;;;;;;;6.35;3.12;;;;;;;21.87;52.04;100044.56;4365018;32;33654;-87
2022/06/12 02:21:27;;;;;;;4.85;3.12;;;;;;;21.91;52.13;100042.88;4364987;32;34595;-88
2022/06/12 02:23:59;;;;;;;6.22;3.47;;;;;;;21.88;52.40;100052.66;4364950;32;34626;-89
2022/06/12 02:26:33;;;;;;;5.55;3.30;;;;;;;21.89;52.63;100053.50;4365186;32;33661;-89
2022/06/12 02:29:05;;;;;;;6.18;3.15;;;;;;;21.80;52.96;100057.94;4365079;32;33656;-87
2022/06/12 02:31:41;;;;;;;5.68;3.15;;;;;;;21.82;52.94;100052.91;4364767;32;32622;-88
2022/06/12 02:34:25;;;;;;;5.15;3.33;;;;;;;21.72;53.26;100056.50;4340669;32;32424;-87
2022/06/12 02:36:59;;;;;;;9.75;3.55;;;;;;;21.79;53.21;100054.31;4364283;32;33750;-88
2022/06/12 02:39:41;;;;;;;5.37;3.28;;;;;;;21.78;53.27;100055.41;4364970;32;34163;-88
2022/06/12 02:42:16;;;;;;;4.87;3.12;;;;;;;21.88;52.97;100058.25;4364737;32;34282;-88
2022/06/12 02:44:51;;;;;;;6.53;3.35;;;;;;;21.70;53.38;100059.56;4352550;32;32587;-88
2022/06/12 02:47:23;;;;;;;4.97;3.62;;;;;;;21.82;53.10;100058.50;4365227;32;34187;-88
2022/06/12 02:49:53;;;;;;;6.03;3.30;;;;;;;21.77;53.13;100052.91;4352740;32;33673;-88
2022/06/12 02:52:33;;;;;;;6.47;3.55;;;;;;;21.70;53.40;100064.31;4352430;32;32862;-88
2022/06/12 02:55:07;;;;;;;5.32;3.10;;;;;;;21.73;53.04;100060.16;4352178;32;32782;-88
2022/06/12 02:57:59;;;;;;;5.18;2.92;;;;;;;21.67;53.14;100067.66;4364616;32;33728;-88
2022/06/12 03:00:33;;;;;;;7.90;3.65;;;;;;;21.58;53.50;100064.53;4352276;32;32273;-88
2022/06/12 03:03:04;;;;;;;6.43;3.10;;;;;;;21.64;53.15;100063.47;4352384;32;32975;-88
2022/06/12 03:05:36;;;;;;;6.87;3.60;;;;;;;21.52;53.23;100075.97;4352350;32;32682;-88
2022/06/12 03:08:08;;;;;;;5.65;3.50;;;;;;;21.60;52.85;100069.88;4364788;32;34150;-87
2022/06/12 03:10:44;;;;;;;9.63;3.53;;;;;;;21.51;53.23;100063.97;4352315;32;32954;-88
2022/06/12 03:13:13;;;;;;;6.00;3.53;;;;;;;21.60;53.12;100067.06;4364859;32;35299;-87
2022/06/12 03:15:48;;;;;;;5.32;3.30;;;;;;;21.56;52.92;100060.34;4352163;32;33418;-88
2022/06/12 03:18:22;;;;;;;5.68;3.08;;;;;;;21.62;52.64;100073.22;4352551;32;33553;-88
2022/06/12 03:21:08;;;;;;;6.45;3.12;;;;;;;21.24;53.64;100075.28;4364355;32;32623;-90
2022/06/12 03:24:00;;;;;;;5.60;2.92;;;;;;;21.46;52.79;100071.47;4352167;32;33609;-88
2022/06/12 03:26:58;;;;;;;7.47;3.30;;;;;;;21.51;52.57;100074.28;4352097;32;33466;-88
2022/06/12 03:29:41;;;;;;;5.55;3.47;;;;;;;21.40;52.17;100070.63;4352147;32;33660;-88
2022/06/12 03:32:24;;;;;;;6.15;3.17;;;;;;;21.39;51.96;100073.69;4352194;32;32535;-88
2022/06/12 03:35:04;;;;;;;5.35;3.15;;;;;;;21.40;52.08;100081.81;4364705;32;34836;-88
2022/06/12 03:37:52;;;;;;;4.53;2.85;;;;;;;21.47;52.52;100073.16;4364130;32;34013;-87
2022/06/12 03:40:19;;;;;;;5.37;2.90;;;;;;;21.56;51.77;100077.09;4364497;32;33576;-88
2022/06/12 03:42:50;;;;;;;7.70;3.35;;;;;;;21.59;50.85;100082.16;4364437;32;34088;-87
2022/06/12 03:45:43;;;;;;;5.68;3.10;;;;;;;21.53;50.48;100078.50;4364136;32;33950;-84
2022/06/12 03:48:40;;;;;;;5.85;2.90;;;;;;;21.51;50.61;100074.28;4352067;32;34031;-85
2022/06/12 03:51:08;;;;;;;;;;;;;;;21.49;49.94;100084.87;4364569;32;33534;-85
2022/06/12 03:54:01;;;;;;;6.80;3.33;;;;;;;21.49;50.80;100079.31;4364107;32;34935;-85
2022/06/12 03:59:46;;;;;;;5.35;2.55;;;;;;;21.45;51.58;100086.56;4364188;32;33488;-84
2022/06/12 04:02:17;;;;;;;4.82;2.80;;;;;;;21.43;50.44;100088.78;4364074;32;34304;-85
2022/06/12 04:04:49;;;;;;;4.68;2.60;;;;;;;21.54;50.21;100090.50;4351506;32;32024;-85
2022/06/12 04:07:18;;;;;;;5.97;3.33;;;;;;;21.46;52.01;100086.28;4352062;32;33308;-85
2022/06/12 04:09:51;;;;;;;5.87;3.03;;;;;;;21.66;51.62;100091.13;4365685;32;33495;-85
2022/06/12 04:12:26;;;;;;;5.93;3.10;;;;;;;21.68;51.35;100094.50;4365854;32;33548;-85
2022/06/12 04:15:21;;;;;;;5.80;2.67;;;;;;;21.65;51.65;100089.44;4365594;32;33900;-84
2022/06/12 04:17:50;;;;;;;6.65;2.90;;;;;;;21.78;51.29;100090.91;4353794;32;34247;-84
2022/06/12 04:20:20;;;;;;;6.87;2.92;;;;;;;21.77;51.71;100098.44;4341506;32;32456;-84
2022/06/12 04:22:58;;;;;;;6.57;2.87;;;;;;;21.80;51.42;100097.91;4365099;32;32425;-83
2022/06/12 04:25:30;;;;;;;6.93;3.05;;;;;;;21.79;51.90;100092.59;4366071;32;33658;-84
2022/06/12 04:27:58;;;;;;;5.32;2.92;;;;;;;21.90;51.00;100095.16;4353115;32;33346;-85
2022/06/12 04:30:38;;;;;;;5.45;3.10;;;;;;;22.01;50.18;100087.63;4353435;32;33088;-84
2022/06/12 04:33:14;;;;;;;6.45;2.70;;;;;;;21.97;50.19;100092.94;4353558;32;34382;-84
2022/06/12 04:35:56;;;;;;;5.90;2.45;;;;;;;22.00;49.75;100097.16;4353330;32;32843;-84
2022/06/12 04:38:25;;;;;;;6.30;3.50;;;;;;;22.02;50.23;100095.78;4353271;32;33684;-84
2022/06/12 04:40:53;;;;;;;6.43;3.47;;;;;;;22.01;51.35;100101.63;4353519;32;34834;-84
2022/06/12 04:43:21;;;;;;;6.07;2.65;;;;;;;22.10;51.36;100099.16;4365557;32;31861;-85
2022/06/12 04:45:50;;;;;;;5.45;2.50;;;;;;;22.13;51.49;100098.59;4353303;32;32198;-84
2022/06/12 04:48:25;;;;;;;5.70;2.72;;;;;;;22.22;50.47;100105.31;4365482;32;33892;-85
2022/06/12 04:50:53;;;;;;;7.72;2.75;;;;;;;22.36;49.68;100098.09;4353231;32;32671;-84
2022/06/12 04:53:21;;;;;;;7.55;2.85;;;;;;;22.39;49.15;100097.53;4340914;32;32156;-84
2022/06/12 04:55:49;;;;;;;5.80;2.90;;;;;;;22.42;49.03;100104.53;4365364;32;32221;-84
2022/06/12 04:58:17;;;;;;;5.85;2.33;;;;;;;22.40;48.62;100103.97;4350511;32;34226;-85
2022/06/12 05:00:48;;;;;;;5.70;2.67;;;;;;;22.47;48.58;100099.78;4350491;32;33216;-84
2022/06/12 05:03:15;;;;;;;5.80;2.60;;;;;;;22.54;48.73;100099.53;4350731;32;32497;-85
2022/06/12 05:05:44;;;;;;;7.28;3.17;;;;;;;22.59;49.33;100102.31;4350678;32;34567;-84
2022/06/12 05:08:12;;;;;;;4.82;2.50;;;;;;;22.63;49.05;100101.50;4350638;32;34213;-84
2022/06/12 05:10:41;;;;;;;5.25;2.53;;;;;;;22.67;48.52;100102.63;4350641;32;33129;-84
2022/06/12 05:13:09;;;;;;;5.60;2.75;;;;;;;22.70;46.97;100094.78;4338402;32;32059;-84
2022/06/12 05:15:38;;;;;;;4.47;2.42;;;;;;;22.75;46.75;100104.00;4338403;32;33425;-84
2022/06/12 05:18:09;;;;;;;5.00;2.40;;;;;;;22.64;46.92;100100.38;4350576;32;33350;-84
2022/06/12 05:20:37;;;;;;;7.37;2.70;;;;;;;22.41;46.54;100095.31;4362760;32;34548;-84
2022/06/12 05:23:06;;;;;;;5.22;2.33;;;;;;;22.53;46.44;100101.47;4362602;32;33615;-84
2022/06/12 05:25:37;;;;;;;5.37;2.70;;;;;;;22.45;46.51;100106.78;4350621;32;33612;-76
2022/06/12 05:28:05;;;;;;;5.60;2.40;;;;;;;22.68;45.75;100106.25;4350745;32;33086;-76
2022/06/12 05:30:34;;;;;;;6.72;2.80;;;;;;;22.71;45.81;100110.47;4350565;32;33944;-76
2022/06/12 05:33:02;;;;;;;3.90;2.12;;;;;;;22.63;45.40;100120.25;4362786;32;34467;-75
2022/06/12 05:35:31;;;;;;;5.78;2.37;;;;;;;22.35;45.75;100119.63;4362692;32;33848;-76
2022/06/12 05:38:01;;;;;;;5.03;2.60;;;;;;;22.35;46.39;100124.38;4350351;32;35505;-76
2022/06/12 05:40:32;;;;;;;6.15;2.40;;;;;;;22.35;46.73;100119.63;4363883;32;34022;-76
2022/06/12 05:43:00;;;;;;;5.03;2.40;;;;;;;22.72;46.34;100117.72;4362860;32;34039;-76
2022/06/12 05:45:30;;;;;;;6.18;2.67;;;;;;;22.80;45.81;100128.37;4338347;32;32302;-76
2022/06/12 05:48:02;;;;;;;6.90;2.60;;;;;;;22.78;45.85;100116.59;4362587;32;34083;-75
2022/06/12 05:50:31;;;;;;;7.60;2.95;;;;;;;22.93;45.86;100119.44;4362655;32;33858;-76
2022/06/12 05:53:07;;;;;;;4.85;2.85;;;;;;;23.21;45.32;100120.81;4350240;32;31851;-76
2022/06/12 05:55:35;;;;;;;4.68;2.55;;;;;;;23.19;45.66;100120.25;4361641;32;34572;-76
2022/06/12 05:58:03;;;;;;;5.12;2.90;;;;;;;23.40;45.45;100121.87;4350203;32;35177;-77
2022/06/12 06:00:31;;;;;;;5.03;2.70;;;;;;;23.57;45.04;100128.03;4363808;32;33886;-76
2022/06/12 06:02:59;;;;;;;7.35;3.12;;;;;;;23.65;45.63;100127.47;4350304;32;32173;-76
2022/06/12 06:05:27;;;;;;;5.93;2.80;;;;;;;23.74;45.02;100126.88;4350386;32;33187;-77
2022/06/12 06:07:56;;;;;;;5.50;2.37;;;;;;;23.70;44.72;100132.22;4350349;32;35434;-75
2022/06/12 06:10:29;;;;;;;4.80;2.60;;;;;;;23.77;43.37;100129.94;4362598;32;34210;-77
2022/06/12 06:12:57;;;;;;;5.43;2.33;;;;;;;23.69;44.25;100136.13;4362633;32;33315;-76
2022/06/12 06:15:28;;;;;;;6.80;2.50;;;;;;;23.99;43.29;100129.59;4350250;32;34777;-76
2022/06/12 06:17:56;;;;;;;4.90;2.62;;;;;;;23.90;43.22;100131.31;4362433;32;35219;-85
2022/06/12 06:20:27;;;;;;;12.45;7.70;;;;;;;23.91;43.33;100135.78;4350287;32;33806;-84
2022/06/12 06:23:01;;;;;;;9.32;4.43;;;;;;;24.17;43.20;100136.50;4350243;32;32203;-85
2022/06/12 06:25:29;;;;;;;4.57;2.72;;;;;;;24.27;43.81;100128.06;4350258;32;32273;-84
2022/06/12 06:28:00;;;;;;;5.72;3.03;;;;;;;24.09;42.30;100137.09;4350088;32;35455;-84
2022/06/12 06:30:29;;;;;;;4.12;2.50;;;;;;;23.96;42.41;100139.41;4362193;32;34672;-84
2022/06/12 06:33:00;;;;;;;7.90;2.53;;;;;;;24.33;42.28;100132.53;4362466;32;33460;-85
2022/06/12 06:35:31;;;;;;;3.53;2.20;;;;;;;24.33;41.64;100134.50;4362325;32;34517;-84
2022/06/12 06:37:59;;;;;;;5.93;2.60;;;;;;;24.42;41.00;100135.56;4349792;32;33881;-84
2022/06/12 06:40:34;;;;;;;4.95;2.62;;;;;;;24.42;40.93;100130.78;4350400;32;34047;-82
2022/06/12 06:43:06;;;;;;;5.97;2.45;;;;;;;24.49;40.79;100131.31;4360381;32;34093;-82
2022/06/12 06:48:25;;;;;;;3.78;2.55;;;;;;;24.67;40.48;100134.56;4351370;32;33034;-85
2022/06/12 06:50:54;;;;;;;7.10;2.33;;;;;;;25.06;41.04;100140.19;4361932;32;33955;-85
2022/06/12 06:53:25;;;;;;;5.22;2.85;;;;;;;24.78;39.81;100136.97;4349568;32;32244;-83
2022/06/12 06:55:58;;;;;;;4.05;2.10;;;;;;;24.88;40.14;100138.87;4361224;32;33250;-83
2022/06/12 06:58:30;;;;;;;5.87;2.72;;;;;;;25.02;39.41;100139.91;4345176;32;33859;-84
2022/06/12 07:00:59;;;;;;;5.18;2.40;;;;;;;25.26;39.26;100135.22;4341082;32;33741;-85
2022/06/12 07:03:30;;;;;;;5.00;2.10;;;;;;;25.06;39.14;100134.56;4359100;32;34568;-85
2022/06/12 07:05:59;;;;;;;4.53;2.50;;;;;;;25.04;39.16;100134.84;4347016;33;33011;-84
2022/06/12 07:08:33;;;;;;;5.07;2.67;;;;;;;25.30;38.33;100124.22;4334949;33;33845;-84
2022/06/12 07:11:07;;;;;;;5.10;2.40;;;;;;;25.18;38.71;100130.22;4346347;32;34838;-84
2022/06/12 07:13:38;;;;;;;5.72;2.58;;;;;;;25.25;38.55;100132.72;4351204;32;33672;-85
2022/06/12 07:16:08;;;;;;;4.93;2.62;;;;;;;25.40;38.49;100134.50;4346682;33;32167;-86
2022/06/12 07:18:37;;;;;;;5.53;2.35;;;;;;;25.62;38.12;100134.84;4346668;33;35731;-79
2022/06/12 07:21:11;;;;;;;4.95;2.70;;;;;;;25.46;37.78;100136.13;4334334;33;32581;-86
2022/06/12 07:23:45;;;;;;;4.87;2.50;;;;;;;25.61;37.71;100134.00;4346759;33;34163;-85
2022/06/12 07:26:22;;;;;;;4.50;2.37;;;;;;;25.83;37.77;100125.06;4359400;32;33147;-84
2022/06/12 07:28:50;;;;;;;8.32;2.45;;;;;;;25.83;38.28;100127.88;4347057;32;34823;-84
2022/06/12 07:31:20;;;;;;;6.32;2.53;;;;;;;25.91;37.89;100123.56;4346810;33;34827;-86
2022/06/12 07:33:51;;;;;;;3.90;2.20;;;;;;;25.61;38.00;100119.94;4345658;33;33230;-84
2022/06/12 07:36:29;;;;;;;5.55;2.60;;;;;;;25.98;37.64;100117.59;4347105;33;33644;-83
2022/06/12 07:39:00;;;;;;;5.35;2.55;;;;;;;25.73;37.47;100113.94;4346856;33;35199;-84
2022/06/12 07:41:48;;;;;;;4.97;2.80;;;;;;;25.75;37.78;100113.62;4345689;33;33696;-82
2022/06/12 07:44:20;;;;;;;7.25;2.53;;;;;;;26.04;37.64;100113.53;4346940;33;34112;-84
2022/06/12 07:46:55;;;;;;;7.62;3.15;;;;;;;26.24;37.66;100116.09;4346891;32;34429;-83
2022/06/12 07:49:27;;;;;;;4.55;2.75;;;;;;;26.39;37.40;100113.09;4346726;33;34481;-84
2022/06/12 07:51:57;;;;;;;4.22;2.62;;;;;;;26.52;37.35;100111.50;4346744;33;32539;-85
2022/06/12 07:54:30;;;;;;;6.37;2.50;;;;;;;26.26;37.25;100125.06;4346340;32;33871;-84
2022/06/12 07:57:05;;;;;;;4.60;2.30;;;;;;;26.64;36.71;100116.69;4346466;33;33906;-85
2022/06/12 07:59:33;;;;;;;3.90;2.40;;;;;;;26.66;36.10;100111.53;4346664;33;33902;-86
2022/06/12 08:02:05;;;;;;;3.87;2.33;;;;;;;26.78;35.83;100111.91;4334387;33;33428;-83
2022/06/12 08:04:33;;;;;;;4.55;2.50;;;;;;;26.45;35.74;100125.97;4334648;33;31984;-86
2022/06/12 08:07:01;;;;;;;5.47;2.80;;;;;;;26.60;35.94;100112.78;4346411;33;33310;-87
2022/06/12 08:09:31;;;;;;;5.03;2.78;;;;;;;26.86;36.20;100112.06;4346721;32;32979;-85
2022/06/12 08:11:59;;;;;;;5.50;2.33;;;;;;;26.92;36.04;100116.47;4346577;33;34647;-85
2022/06/12 08:14:30;;;;;;;3.85;2.30;;;;;;;27.02;36.87;100112.69;4346544;33;34295;-84
2022/06/12 08:17:06;;;;;;;6.10;2.80;;;;;;;26.97;36.25;100109.13;4346510;33;31878;-84
2022/06/12 08:22:33;;;;;;;6.03;3.10;;;;;;;27.01;36.04;100110.16;4349266;32;32439;-85
2022/06/12 08:25:05;;;;;;;5.32;2.92;;;;;;;27.21;36.99;100098.56;4346320;33;33901;-85
2022/06/12 08:27:36;;;;;;;4.93;2.80;;;;;;;27.42;36.65;100102.63;4334478;33;32450;-86
2022/06/12 08:30:07;;;;;;;6.80;2.58;;;;;;;27.51;37.07;100099.94;4346221;33;33187;-87
2022/06/12 08:32:35;;;;;;;5.93;2.40;;;;;;;27.44;35.29;100100.34;4346260;33;32449;-86
2022/06/12 08:35:16;;;;;;;5.93;2.40;;;;;;;27.33;35.02;100093.22;4346323;33;31953;-86
2022/06/12 08:37:44;;;;;;;7.22;2.70;;;;;;;27.49;34.52;100090.97;4346045;33;34358;-86
2022/06/12 08:40:26;;;;;;;5.40;2.87;;;;;;;27.77;34.77;100098.31;4346131;33;34263;-85
2022/06/12 08:43:23;;;;;;;4.60;2.47;;;;;;;27.89;35.18;100103.44;4345924;33;33431;-85
2022/06/12 08:45:59;;;;;;;5.05;2.53;;;;;;;27.93;34.63;100090.38;4346182;32;31901;-84
2022/06/12 08:48:37;;;;;;;5.80;3.80;;;;;;;28.16;34.56;100094.94;4346100;33;33761;-85
2022/06/12 08:51:12;;;;;;;6.28;2.62;;;;;;;28.17;35.41;100096.59;4334133;33;33041;-85
2022/06/12 08:53:59;;;;;;;6.78;2.72;;;;;;;28.28;35.20;100100.06;4346914;33;33681;-86
2022/06/12 08:56:32;;;;;;;4.20;2.47;;;;;;;28.17;33.98;100107.91;4348621;32;34323;-85
2022/06/12 08:59:36;;;;;;;6.93;2.90;;;;;;;28.46;35.06;100101.91;4357456;32;33991;-84
2022/06/12 09:02:23;;;;;;;6.70;2.80;;;;;;;28.57;34.19;100093.22;4353416;32;32891;-86
2022/06/12 09:05:01;;;;;;;5.15;3.00;;;;;;;28.79;33.71;100090.38;4361915;32;34052;-85
2022/06/12 09:07:50;;;;;;;4.37;2.78;;;;;;;28.95;34.79;100097.34;4351492;32;33380;-84
2022/06/12 09:10:32;;;;;;;4.62;2.35;;;;;;;28.83;33.46;100103.56;4361200;32;34570;-85
2022/06/12 09:13:32;;;;;;;4.85;2.40;;;;;;;28.67;32.63;100090.09;4365234;32;33875;-80
2022/06/12 09:16:26;;;;;;;5.97;2.50;;;;;;;28.71;32.91;100088.31;4367986;32;33913;-85
2022/06/12 09:19:05;;;;;;;4.78;2.17;;;;;;;29.12;32.69;100096.66;4367772;32;32938;-84
2022/06/12 09:21:52;;;;;;;5.65;2.62;;;;;;;28.77;32.84;100093.53;4362881;32;34618;-86
2022/06/12 09:24:38;;;;;;;4.65;2.20;;;;;;;29.18;32.84;100089.69;4353638;32;33466;-86
2022/06/12 09:27:33;;;;;;;4.32;2.35;;;;;;;29.35;31.79;100081.28;4369341;32;34555;-86
2022/06/12 09:30:04;;;;;;;5.53;2.20;;;;;;;29.62;31.21;100079.47;4353175;32;34135;-84
2022/06/12 09:32:38;;;;;;;6.20;2.20;;;;;;;29.33;31.54;100092.09;4365502;32;33864;-85
2022/06/12 09:35:23;;;;;;;5.72;2.47;;;;;;;29.78;31.81;100084.34;4365299;32;34236;-85
2022/06/12 09:38:20;;;;;;;4.15;2.20;;;;;;;29.36;31.32;100087.78;4352948;32;32662;-84
2022/06/12 09:40:50;;;;;;;;;;;;;;;29.71;32.02;100086.00;4358022;32;31916;-82
2022/06/12 09:43:18;;;;;;;7.20;2.78;;;;;;;30.12;31.21;100080.81;4371855;32;32770;-84
2022/06/12 09:46:01;;;;;;;4.47;2.20;;;;;;;29.94;30.71;100075.41;4372646;32;35095;-85
2022/06/12 09:48:47;;;;;;;4.62;2.45;;;;;;;29.98;30.40;100070.75;4372963;32;33914;-84
2022/06/12 09:51:45;;;;;;;5.12;2.50;;;;;;;30.27;31.33;100064.50;4359946;32;31917;-83
2022/06/12 09:54:42;;;;;;;5.18;2.50;;;;;;;30.26;30.20;100065.69;4369359;32;33952;-83
2022/06/12 09:57:34;;;;;;;4.25;2.45;;;;;;;30.55;30.59;100071.50;4368628;32;35162;-83
2022/06/12 10:00:12;;;;;;;4.82;2.60;;;;;;;30.37;29.74;100065.03;4367837;32;34240;-85
2022/06/12 10:03:13;;;;;;;6.57;2.70;;;;;;;30.87;30.94;100058.03;4369330;32;31754;-83
2022/06/12 10:05:58;;;;;;;5.53;2.55;;;;;;;31.14;30.46;100045.50;4371033;32;34688;-84
2022/06/12 10:08:34;;;;;;;5.32;2.33;;;;;;;30.91;28.88;100048.53;4357873;32;35460;-83
2022/06/12 10:11:18;;;;;;;5.68;2.70;;;;;;;30.80;29.21;100048.03;4369893;32;34502;-84
2022/06/12 10:14:04;;;;;;;5.15;2.70;;;;;;;31.00;29.26;100045.69;4358393;32;31945;-83
2022/06/12 10:16:40;;;;;;;6.60;3.47;;;;;;;31.51;29.76;100041.88;4359866;32;32146;-84
2022/06/12 10:19:38;;;;;;;8.25;2.60;;;;;;;31.67;29.90;100042.12;4368989;32;33725;-82
2022/06/12 10:22:29;;;;;;;6.70;2.53;;;;;;;31.73;27.84;100035.94;4368085;32;34921;-85
2022/06/12 10:25:01;;;;;;;4.43;2.72;;;;;;;31.68;29.02;100035.31;4359078;32;34284;-81
2022/06/12 10:27:47;;;;;;;5.70;3.37;;;;;;;31.86;28.69;100030.34;4352822;32;33281;-82
2022/06/12 10:30:38;;;;;;;5.45;2.67;;;;;;;32.11;29.25;100026.53;4350156;32;33806;-81
2022/06/12 10:33:24;;;;;;;4.22;2.20;;;;;;;31.98;28.12;100031.28;4337894;32;32576;-82
2022/06/12 10:36:03;;;;;;;4.57;2.50;;;;;;;31.23;28.38;100023.59;4346979;32;31997;-81
2022/06/12 10:38:36;;;;;;;4.72;2.60;;;;;;;31.37;28.54;100027.06;4345763;32;32189;-81
2022/06/12 10:41:26;;;;;;;5.57;2.42;;;;;;;31.89;29.20;100018.31;4393715;32;34349;-81
2022/06/12 10:43:56;;;;;;;13.38;8.77;;;;;;;31.80;28.25;100020.41;4379507;32;33747;-81
2022/06/12 10:46:31;;;;;;;7.20;3.70;;;;;;;32.02;28.94;100020.91;4379718;32;33364;-81
2022/06/12 10:49:13;;;;;;;8.27;3.58;;;;;;;31.59;28.50;100023.97;4368322;32;33996;-81
2022/06/12 10:51:45;;;;;;;7.15;3.75;;;;;;;32.21;28.20;100022.44;4346088;32;34523;-83
2022/06/12 10:54:19;;;;;;;48.72;33.60;;;;;;;32.39;27.94;100006.97;4358150;32;33773;-83
2022/06/12 10:57:11;;;;;;;5.28;3.03;;;;;;;32.64;30.00;100008.72;4342174;32;32081;-82
2022/06/12 10:59:42;;;;;;;7.75;3.70;;;;;;;32.79;27.30;100012.97;4371268;32;34474;-83
2022/06/12 11:02:35;;;;;;;46.78;29.48;;;;;;;32.87;28.63;100011.22;4369630;32;35077;-83
2022/06/12 11:05:22;;;;;;;5.00;2.92;;;;;;;33.11;28.55;100004.75;4372357;32;34013;-82
2022/06/12 11:07:57;;;;;;;20.75;13.75;;;;;;;33.04;26.48;100014.69;4375837;32;34494;-82
2022/06/12 11:10:58;;;;;;;12.98;7.72;;;;;;;33.10;26.87;100003.94;4379489;32;33799;-81
2022/06/12 11:13:50;;;;;;;6.82;2.60;;;;;;;33.09;26.56;100002.28;4379152;32;33940;-83
2022/06/12 11:17:03;;;;;;;5.60;2.50;;;;;;;33.29;26.28;100001.38;4366781;32;32620;-78
2022/06/12 11:19:49;;;;;;;8.70;2.70;;;;;;;33.30;25.61;99991.66;4372015;32;32466;-82
2022/06/12 11:22:40;;;;;;;4.10;2.22;;;;;;;33.09;26.33;100001.44;4379744;32;34475;-81
2022/06/12 11:25:41;;;;;;;5.75;2.65;;;;;;;32.82;26.40;100003.72;4362232;32;32650;-83
2022/06/12 11:28:41;;;;;;;7.40;4.55;;;;;;;33.08;26.07;100000.63;4364290;32;32582;-82
2022/06/12 11:31:30;;;;;;;4.35;2.60;;;;;;;33.39;26.79;99994.37;4367993;32;33556;-82
2022/06/12 11:33:59;;;;;;;6.45;3.12;;;;;;;33.38;26.52;99998.41;4370939;32;34593;-86
2022/06/12 11:36:35;;;;;;;6.30;3.03;;;;;;;33.84;26.61;99999.16;4376131;32;35437;-85
2022/06/12 11:39:35;;;;;;;4.80;2.30;;;;;;;33.86;26.16;100003.28;4379319;32;34041;-82
2022/06/12 11:42:10;;;;;;;5.00;2.90;;;;;;;33.99;25.16;99990.69;4378434;32;33218;-83
2022/06/12 11:44:49;;;;;;;6.03;2.40;;;;;;;33.79;25.23;99996.53;4367242;32;34639;-83
2022/06/12 11:47:30;;;;;;;5.30;2.33;;;;;;;34.10;25.37;99988.19;4379074;32;34028;-83
2022/06/12 11:49:58;;;;;;;5.65;2.75;;;;;;;34.10;24.81;99984.50;4367104;32;34004;-82
2022/06/12 11:52:45;;;;;;;4.55;2.78;;;;;;;34.20;24.98;99987.69;4366842;32;32767;-82
2022/06/12 11:55:15;;;;;;;5.95;2.90;;;;;;;33.40;25.30;99987.50;4367242;32;33734;-83
2022/06/12 11:57:59;;;;;;;7.03;3.20;;;;;;;33.53;25.10;99992.03;4366492;32;32900;-82
2022/06/12 12:00:51;;;;;;;4.37;2.70;;;;;;;33.88;26.29;99977.31;4379032;32;32980;-81
2022/06/12 12:03:47;;;;;;;4.85;2.70;;;;;;;33.70;25.18;99983.25;4392713;32;34227;-83
2022/06/12 12:06:54;;;;;;;;;;;;;;;33.97;25.35;99976.00;4352045;32;34721;-82
2022/06/12 12:09:33;;;;;;;8.00;2.62;;;;;;;34.20;26.57;99973.44;4318685;33;34510;-82
2022/06/12 12:12:09;;;;;;;3.90;2.30;;;;;;;33.83;24.85;99971.84;4318568;33;34029;-83
2022/06/12 12:14:43;;;;;;;7.75;4.03;;;;;;;33.93;24.82;99969.34;4336714;32;32930;-82
2022/06/12 12:17:22;;;;;;;6.22;3.70;;;;;;;34.00;25.85;99963.87;4351505;32;33863;-82
2022/06/12 12:19:55;;;;;;;4.97;3.33;;;;;;;34.18;26.59;99957.91;4364029;32;34367;-83
2022/06/12 12:22:46;;;;;;;4.68;2.80;;;;;;;34.38;26.76;99945.53;4351679;32;33847;-82
2022/06/12 12:25:20;;;;;;;4.53;2.72;;;;;;;34.40;26.00;99946.00;4351653;32;32212;-83